Time;durP1;ratioP1;P1;durP2;ratioP2;P2;SDS_P1;SDS_P2;PMS_P1;PMS_P2;Temp;Humidity;BMP_temperature;BMP_pressure;BME280_temperature;BME280_humidity;BME280_pressure;Samples;Min_cycle;Max_cycle;Signal;HPM_P1;HPM_P2
2023/01/01 00:01:29;;;;;;;173.60;111.60;;;;;;;4.78;85.55;101492.52;123658;1099;104345;-79
2023/01/01 00:04:01;;;;;;;161.55;106.50;;;;;;;4.76;85.86;101490.61;123602;1099;104312;-79
2023/01/01 00:06:33;;;;;;;169.63;109.20;;;;;;;4.70;86.28;101492.75;123682;1099;104335;-79
2023/01/01 00:11:53;;;;;;;190.17;121.60;;;;;;;4.56;86.18;101500.40;123673;1099;104284;-78
2023/01/01 00:14:25;;;;;;;180.03;119.13;;;;;;;4.52;86.39;101506.17;123627;1099;104232;-78
2023/01/01 00:16:57;;;;;;;186.15;118.50;;;;;;;4.48;86.33;101524.91;123641;1098;107856;-79
2023/01/01 00:19:28;;;;;;;182.07;119.60;;;;;;;4.45;86.09;101522.08;123672;1099;104297;-78
2023/01/01 00:21:59;;;;;;;188.00;123.57;;;;;;;4.45;86.01;101532.48;123687;1098;104226;-78
2023/01/01 00:24:30;;;;;;;189.47;121.60;;;;;;;4.45;86.33;101522.97;123640;1098;104303;-78
2023/01/01 00:27:02;;;;;;;185.37;119.97;;;;;;;4.45;85.90;101524.67;123614;1099;104450;-78
2023/01/01 00:29:33;;;;;;;178.70;114.55;;;;;;;4.43;86.57;101532.36;123330;1099;104379;-79
2023/01/01 00:32:04;;;;;;;181.00;114.10;;;;;;;4.43;86.08;101534.06;123641;1099;104466;-78
2023/01/01 00:34:36;;;;;;;172.60;107.53;;;;;;;4.39;86.33;101532.00;123661;1099;104402;-79
2023/01/01 00:37:07;;;;;;;172.77;111.93;;;;;;;4.35;86.30;101525.67;123661;1099;104271;-78
2023/01/01 00:39:38;;;;;;;178.70;110.30;;;;;;;4.34;86.32;101525.55;123686;1099;104286;-78
2023/01/01 00:42:09;;;;;;;168.73;108.30;;;;;;;4.30;86.38;101522.72;123651;1099;104322;-79
2023/01/01 00:44:40;;;;;;;162.93;106.53;;;;;;;4.29;86.58;101530.39;123647;1099;104328;-79
2023/01/01 00:47:12;;;;;;;160.77;103.03;;;;;;;4.24;86.04;101532.64;123621;1099;104326;-78
2023/01/01 00:49:43;;;;;;;165.20;106.13;;;;;;;4.15;86.08;101529.33;123653;1099;104230;-78
2023/01/01 00:52:14;;;;;;;176.80;109.90;;;;;;;4.07;85.75;101526.13;123559;1098;104418;-78
2023/01/01 00:54:45;;;;;;;174.43;112.00;;;;;;;4.02;85.66;101529.13;123527;1098;104380;-78
2023/01/01 00:57:17;;;;;;;183.20;114.10;;;;;;;4.00;85.81;101535.91;123503;1099;104255;-78
2023/01/01 00:59:48;;;;;;;189.15;117.80;;;;;;;3.95;85.85;101520.86;123569;1099;104245;-78
2023/01/01 01:02:19;;;;;;;183.87;117.37;;;;;;;3.93;85.84;101529.34;123610;1099;104274;-79
2023/01/01 01:04:50;;;;;;;184.80;116.77;;;;;;;3.90;85.86;101524.80;123273;1099;104347;-79
2023/01/01 01:07:21;;;;;;;187.15;118.45;;;;;;;3.84;85.91;101523.42;123590;1099;104339;-79
2023/01/01 01:09:53;;;;;;;178.03;116.47;;;;;;;3.80;86.16;101521.35;123348;1099;104351;-79
2023/01/01 01:12:24;;;;;;;180.23;114.63;;;;;;;3.78;85.89;101531.62;123664;1098;104278;-78
2023/01/01 01:14:55;;;;;;;179.37;115.17;;;;;;;3.74;86.36;101526.95;123283;1099;104271;-79
2023/01/01 01:17:28;;;;;;;188.47;117.93;;;;;;;3.72;85.99;101524.23;123357;1099;104352;-79
2023/01/01 01:19:59;;;;;;;186.77;118.23;;;;;;;3.72;86.22;101518.15;123341;1099;104502;-78
2023/01/01 01:22:33;;;;;;;193.87;121.53;;;;;;;3.74;86.26;101521.77;123355;1099;104351;-79
2023/01/01 01:25:05;;;;;;;201.85;122.65;;;;;;;3.76;86.61;101515.02;123344;1099;104632;-78
2023/01/01 01:27:36;;;;;;;195.93;120.23;;;;;;;3.76;86.04;101512.42;123261;1099;104271;-78
2023/01/01 01:30:09;;;;;;;185.57;119.33;;;;;;;3.75;86.36;101508.00;123411;1099;104373;-79
2023/01/01 01:32:41;;;;;;;193.22;118.40;;;;;;;3.74;86.00;101516.56;123251;1099;104283;-78
2023/01/01 01:35:12;;;;;;;193.27;118.13;;;;;;;3.69;86.30;101516.20;123331;1099;104248;-78
2023/01/01 01:37:43;;;;;;;190.87;116.60;;;;;;;3.66;86.41;101513.39;123255;1099;104300;-79
2023/01/01 01:40:17;;;;;;;185.60;113.87;;;;;;;3.65;86.27;101513.27;123285;1099;104322;-78
2023/01/01 01:42:49;;;;;;;170.35;105.72;;;;;;;3.58;85.60;101509.26;123312;1099;104245;-78
2023/01/01 01:45:20;;;;;;;170.40;104.73;;;;;;;3.54;86.09;101508.12;123338;1099;104269;-79
2023/01/01 01:47:55;;;;;;;154.23;97.03;;;;;;;3.50;86.37;101495.67;123527;1099;104273;-79
2023/01/01 01:50:31;;;;;;;149.97;94.87;;;;;;;3.49;86.04;101495.55;123659;1099;104345;-79
2023/01/01 01:53:08;;;;;;;160.80;100.83;;;;;;;3.48;85.61;101481.67;123227;1099;104348;-79
2023/01/01 01:55:43;;;;;;;172.13;103.77;;;;;;;3.49;86.86;101490.36;123655;1099;104292;-78
2023/01/01 01:58:16;;;;;;;177.60;105.80;;;;;;;3.46;86.16;101491.04;123410;1099;104316;-79
2023/01/01 02:00:47;;;;;;;173.60;104.57;;;;;;;3.46;85.81;101491.04;123353;1099;104229;-79
2023/01/01 02:03:23;;;;;;;168.95;104.00;;;;;;;3.44;86.30;101489.98;123372;1099;104351;-79
2023/01/01 02:05:54;;;;;;;153.53;96.40;;;;;;;3.44;86.55;101482.20;123359;1099;104274;-78
2023/01/01 02:08:26;;;;;;;158.33;97.53;;;;;;;3.45;86.17;101475.34;123346;1099;104194;-79
2023/01/01 02:10:57;;;;;;;155.07;96.63;;;;;;;3.44;86.02;101478.71;123284;1099;104533;-80
2023/01/01 02:13:29;;;;;;;154.97;96.73;;;;;;;3.42;86.28;101474.30;123458;1099;104270;-78
2023/01/01 02:16:06;;;;;;;156.30;99.47;;;;;;;3.44;86.02;101466.63;123549;1099;104255;-78
2023/01/01 02:18:44;;;;;;;155.60;95.47;;;;;;;3.43;86.48;101472.62;123598;1099;104224;-78
2023/01/01 02:21:21;;;;;;;153.43;96.10;;;;;;;3.44;86.61;101469.23;123580;1099;104408;-79
2023/01/01 02:24:01;;;;;;;154.23;95.93;;;;;;;3.45;86.56;101460.67;123540;1099;104341;-79
2023/01/01 02:26:52;;;;;;;146.37;92.37;;;;;;;3.46;86.52;101471.95;123582;1099;104322;-78
2023/01/01 02:29:34;;;;;;;156.07;92.90;;;;;;;3.42;86.48;101478.59;123521;1099;104347;-79
2023/01/01 02:32:09;;;;;;;157.37;94.10;;;;;;;3.39;86.52;101474.05;123648;1099;104331;-78
2023/01/01 02:34:45;;;;;;;148.03;92.13;;;;;;;3.38;85.80;101476.52;123736;1099;104488;-78
2023/01/01 02:37:18;;;;;;;150.60;89.85;;;;;;;3.33;86.73;101476.16;123601;1099;104348;-78
2023/01/01 02:39:56;;;;;;;148.80;90.40;;;;;;;3.28;86.73;101480.08;123553;1099;104289;-79
2023/01/01 02:42:30;;;;;;;143.85;89.15;;;;;;;3.23;86.44;101474.52;123610;1099;104348;-78
2023/01/01 02:45:02;;;;;;;148.03;91.07;;;;;;;3.24;86.84;101460.78;123604;1099;104322;-79
2023/01/01 02:47:33;;;;;;;139.60;85.63;;;;;;;3.24;86.34;101476.34;123701;1099;104338;-79
2023/01/01 02:50:11;;;;;;;130.87;79.90;;;;;;;3.18;85.97;101493.06;123675;1099;107947;-79
2023/01/01 02:53:02;;;;;;;123.77;77.20;;;;;;;3.09;86.77;101488.06;123679;1099;104315;-79
2023/01/01 02:55:47;;;;;;;123.13;77.60;;;;;;;3.03;86.50;101484.97;123762;1099;104201;-79
2023/01/01 03:01:30;;;;;;;135.40;80.43;;;;;;;3.06;86.66;101477.44;123664;1099;104332;-80
2023/01/01 03:04:09;;;;;;;140.10;83.70;;;;;;;3.09;86.97;101480.28;123594;1099;104367;-80
2023/01/01 03:06:50;;;;;;;154.20;88.20;;;;;;;3.10;86.60;101476.92;123646;1098;104396;-80
2023/01/01 03:09:28;;;;;;;155.40;87.50;;;;;;;3.09;86.33;101485.47;123723;1099;104280;-79
2023/01/01 03:12:03;;;;;;;159.83;90.53;;;;;;;3.01;86.29;101491.73;123760;1099;104325;-79
2023/01/01 03:14:43;;;;;;;149.23;83.63;;;;;;;2.93;86.00;101496.28;123675;1099;104416;-79
2023/01/01 03:17:22;;;;;;;140.47;80.00;;;;;;;2.84;86.52;101498.12;123680;1099;104243;-79
2023/01/01 03:19:55;;;;;;;138.87;76.83;;;;;;;2.76;86.35;101489.70;123460;1099;104409;-79
2023/01/01 03:22:30;;;;;;;114.87;67.27;;;;;;;2.71;86.11;101488.39;123737;1099;104245;-79
2023/01/01 03:25:06;;;;;;;122.17;73.60;;;;;;;2.69;86.76;101487.37;123759;1097;104236;-79
2023/01/01 03:27:44;;;;;;;125.07;73.23;;;;;;;2.68;86.61;101482.95;123835;1099;104322;-78
2023/01/01 03:30:18;;;;;;;122.70;72.33;;;;;;;2.73;86.79;101484.27;123675;1099;104364;-79
2023/01/01 03:33:03;;;;;;;122.20;72.80;;;;;;;2.75;86.74;101480.10;123836;1099;104251;-79
2023/01/01 03:35:39;;;;;;;133.43;75.03;;;;;;;2.77;86.60;101475.94;123734;1099;104340;-79
2023/01/01 03:38:15;;;;;;;128.27;73.97;;;;;;;2.76;86.60;101475.81;123711;1099;104281;-79
2023/01/01 03:40:50;;;;;;;125.87;71.13;;;;;;;2.75;86.82;101476.62;123639;1099;104328;-78
2023/01/01 03:43:29;;;;;;;127.00;73.73;;;;;;;2.77;86.88;101475.05;123751;1099;104464;-79
2023/01/01 03:46:01;;;;;;;126.27;76.77;;;;;;;2.78;87.15;101469.98;123674;1099;104258;-79
2023/01/01 03:48:54;;;;;;;124.20;71.67;;;;;;;2.77;87.41;101478.53;123691;1099;104331;-78
2023/01/01 03:51:33;;;;;;;124.70;74.63;;;;;;;2.71;87.08;101475.44;123676;1099;104395;-79
2023/01/01 03:54:14;;;;;;;127.07;75.80;;;;;;;2.74;87.21;101485.16;123694;1099;104387;-79
2023/01/01 03:56:52;;;;;;;128.10;74.80;;;;;;;2.75;86.63;101477.52;123676;1099;104380;-79
2023/01/01 03:59:29;;;;;;;121.33;73.73;;;;;;;2.75;86.64;101482.70;123415;1099;104293;-78
2023/01/01 04:02:04;;;;;;;119.90;71.60;;;;;;;2.77;87.18;101485.41;123757;1099;110917;-79
2023/01/01 04:04:36;;;;;;;120.37;71.00;;;;;;;2.74;87.17;101495.53;123844;1099;104271;-79
2023/01/01 04:07:08;;;;;;;116.63;70.97;;;;;;;2.70;86.77;101490.09;123736;1099;104347;-79
2023/01/01 04:09:42;;;;;;;122.50;71.27;;;;;;;2.72;87.29;101495.40;123636;1099;104707;-79
2023/01/01 04:12:13;;;;;;;114.05;67.12;;;;;;;2.68;86.76;101506.28;123690;1099;104316;-79
2023/01/01 04:14:45;;;;;;;113.13;67.67;;;;;;;2.57;86.71;101507.08;123655;1099;104293;-79
2023/01/01 04:17:17;;;;;;;112.27;67.27;;;;;;;2.42;86.35;101517.97;123633;1098;104255;-78
2023/01/01 04:19:48;;;;;;;111.13;65.70;;;;;;;2.26;85.93;101520.95;123683;1099;104323;-78
2023/01/01 04:22:22;;;;;;;108.00;65.73;;;;;;;2.13;85.89;101523.25;123693;1098;104320;-79
2023/01/01 04:24:53;;;;;;;105.87;64.42;;;;;;;2.02;86.31;101522.33;123763;1099;104348;-79
2023/01/01 04:27:24;;;;;;;108.07;65.47;;;;;;;2.02;86.79;101524.92;123718;1099;104353;-79
2023/01/01 04:29:55;;;;;;;108.07;65.80;;;;;;;1.99;86.57;101524.66;123700;1099;104252;-79
2023/01/01 04:32:27;;;;;;;106.47;64.37;;;;;;;2.04;86.79;101509.52;123707;1098;118629;-79
2023/01/01 04:34:58;;;;;;;101.93;62.30;;;;;;;2.05;87.00;101526.88;123619;1099;104338;-79
2023/01/01 04:37:30;;;;;;;105.53;62.57;;;;;;;2.01;86.63;101533.48;123402;1099;104274;-78
2023/01/01 04:40:01;;;;;;;104.83;63.63;;;;;;;2.02;87.12;101534.38;123738;1099;104294;-79
2023/01/01 04:42:32;;;;;;;101.97;62.37;;;;;;;2.03;86.83;101536.20;123463;1099;104248;-79
2023/01/01 04:45:04;;;;;;;117.17;68.00;;;;;;;2.01;86.62;101525.72;123697;1099;104351;-79
2023/01/01 04:47:35;;;;;;;110.43;64.63;;;;;;;1.98;86.77;101528.04;123675;1099;104342;-79
2023/01/01 04:50:08;;;;;;;107.75;64.45;;;;;;;1.94;86.32;101528.53;123380;1099;104322;-80
2023/01/01 04:52:39;;;;;;;108.77;64.60;;;;;;;1.94;86.73;101525.95;123572;1098;104348;-79
2023/01/01 04:55:11;;;;;;;106.80;63.67;;;;;;;1.97;86.73;101521.93;123363;1099;104335;-79
2023/01/01 04:57:43;;;;;;;107.10;62.57;;;;;;;1.98;86.37;101530.62;123674;1099;104364;-79
2023/01/01 05:00:16;;;;;;;102.15;60.80;;;;;;;1.95;86.84;101528.67;123674;1099;104476;-79
2023/01/01 05:02:47;;;;;;;105.13;60.57;;;;;;;1.92;86.25;101537.86;123693;1099;104271;-79
2023/01/01 05:05:19;;;;;;;100.23;58.27;;;;;;;1.92;86.66;101540.45;123599;1099;104350;-79
2023/01/01 05:07:50;;;;;;;97.53;57.93;;;;;;;1.88;86.88;101546.12;123746;1099;104252;-79
2023/01/01 05:10:21;;;;;;;97.30;59.40;;;;;;;1.86;86.78;101533.05;123637;1099;104339;-79
2023/01/01 05:12:52;;;;;;;101.67;60.33;;;;;;;1.90;86.71;101536.80;123344;1099;104229;-79
2023/01/01 05:15:23;;;;;;;100.30;60.35;;;;;;;1.95;87.37;101532.95;123367;1099;104322;-80
2023/01/01 05:17:55;;;;;;;99.40;59.83;;;;;;;2.01;87.46;101536.07;123442;1099;104280;-79
2023/01/01 05:20:26;;;;;;;100.87;62.47;;;;;;;2.03;87.80;101521.56;123336;1099;104245;-79
2023/01/01 05:22:58;;;;;;;103.57;61.97;;;;;;;2.04;87.10;101525.98;123363;1099;104402;-79
2023/01/01 05:25:29;;;;;;;100.27;61.40;;;;;;;2.05;87.19;101527.77;123306;1099;104219;-79
2023/01/01 05:28:00;;;;;;;105.00;60.97;;;;;;;2.10;87.48;101528.17;123406;1099;104245;-79
2023/01/01 05:30:32;;;;;;;105.65;64.45;;;;;;;2.09;87.02;101537.63;123327;1099;104175;-79
2023/01/01 05:33:03;;;;;;;102.30;63.53;;;;;;;2.06;87.35;101545.13;123393;1099;104261;-79
2023/01/01 05:35:34;;;;;;;106.73;62.70;;;;;;;2.05;86.61;101545.89;123338;1099;104262;-79
2023/01/01 05:38:06;;;;;;;102.90;61.57;;;;;;;2.02;86.26;101553.39;123346;1099;104309;-79
2023/01/01 05:40:40;;;;;;;108.97;62.47;;;;;;;1.96;86.53;101555.45;123414;1099;104351;-79
2023/01/01 05:43:11;;;;;;;114.77;65.63;;;;;;;1.89;86.72;101558.30;123470;1099;104280;-79
2023/01/01 05:45:43;;;;;;;115.40;67.10;;;;;;;1.84;86.46;101556.97;123448;1099;104248;-79
2023/01/01 05:48:14;;;;;;;115.00;66.53;;;;;;;1.85;86.95;101556.20;123461;1099;104338;-79
2023/01/01 05:50:46;;;;;;;111.87;66.53;;;;;;;1.86;86.64;101564.10;123393;1099;104265;-79
2023/01/01 05:53:17;;;;;;;106.40;63.03;;;;;;;1.84;86.69;101564.73;123465;1099;104229;-79
2023/01/01 05:55:54;;;;;;;107.50;62.80;;;;;;;1.85;86.99;101563.97;123409;1099;104371;-79
2023/01/01 05:58:25;;;;;;;115.75;67.20;;;;;;;1.88;87.00;101559.95;123283;1099;104259;-79
2023/01/01 06:00:57;;;;;;;104.73;62.20;;;;;;;1.91;86.99;101557.64;123391;1099;104626;-79
2023/01/01 06:03:28;;;;;;;104.13;62.43;;;;;;;1.95;87.34;101558.84;123272;1102;104358;-78
2023/01/01 06:06:02;;;;;;;93.15;56.15;;;;;;;2.00;87.07;101562.72;123361;1099;104319;-79
2023/01/01 06:08:33;;;;;;;96.67;58.00;;;;;;;2.05;87.21;101566.61;123353;1099;104688;-79
2023/01/01 06:11:07;;;;;;;91.67;56.77;;;;;;;2.11;87.81;101564.55;123413;1099;104232;-79
2023/01/01 06:13:38;;;;;;;92.67;55.17;;;;;;;2.18;87.31;101557.31;123483;1099;104255;-79
2023/01/01 06:16:11;;;;;;;99.67;56.27;;;;;;;2.21;87.42;101560.17;123635;1099;104368;-79
2023/01/01 06:18:42;;;;;;;90.33;52.87;;;;;;;2.23;87.25;101556.02;123687;1099;104271;-79
2023/01/01 06:21:15;;;;;;;89.80;56.10;;;;;;;2.26;87.36;101556.28;123634;1099;104201;-78
2023/01/01 06:23:47;;;;;;;87.05;51.35;;;;;;;2.30;87.34;101560.95;123689;1099;104225;-79
2023/01/01 06:26:20;;;;;;;84.07;52.13;;;;;;;2.28;87.50;101557.34;123617;1099;104396;-79
2023/01/01 06:28:51;;;;;;;77.10;49.43;;;;;;;2.28;87.24;101565.11;123626;1099;104328;-78
2023/01/01 06:31:23;;;;;;;76.53;48.30;;;;;;;2.27;87.24;101565.87;123642;1099;104276;-79
2023/01/01 06:33:55;;;;;;;81.00;51.13;;;;;;;2.27;87.03;101571.05;123767;1099;104201;-79
2023/01/01 06:36:27;;;;;;;85.67;53.43;;;;;;;2.28;87.61;101578.96;123893;1099;104345;-82
2023/01/01 06:38:59;;;;;;;86.70;54.23;;;;;;;2.26;87.26;101580.52;123683;1099;104381;-79
2023/01/01 06:41:31;;;;;;;87.00;55.00;;;;;;;2.28;87.41;101578.06;123749;1099;104377;-79
2023/01/01 06:44:03;;;;;;;89.73;55.10;;;;;;;2.34;87.66;101576.00;123892;1099;104402;-79
2023/01/01 06:46:36;;;;;;;90.80;56.43;;;;;;;2.44;87.41;101573.40;123790;1099;104252;-79
2023/01/01 06:49:11;;;;;;;92.00;55.07;;;;;;;2.53;88.09;101569.80;123749;1099;104242;-79
2023/01/01 06:51:43;;;;;;;90.33;55.77;;;;;;;2.62;87.83;101573.17;123806;1099;104412;-79
2023/01/01 06:54:15;;;;;;;86.33;54.27;;;;;;;2.67;88.10;101577.05;123827;1099;104390;-79
2023/01/01 06:56:46;;;;;;;89.03;55.13;;;;;;;2.71;87.35;101573.92;123765;1099;104389;-79
2023/01/01 06:59:17;;;;;;;88.60;54.17;;;;;;;2.75;87.95;101580.30;123414;1099;104354;-79
2023/01/01 07:01:48;;;;;;;95.15;57.20;;;;;;;2.76;87.43;101587.27;123593;1099;104200;-79
2023/01/01 07:04:20;;;;;;;92.77;57.00;;;;;;;2.75;88.08;101588.07;123632;1099;104441;-79
2023/01/01 07:06:51;;;;;;;90.50;56.13;;;;;;;2.77;87.34;101604.65;123630;1099;104297;-79
2023/01/01 07:09:22;;;;;;;100.65;59.90;;;;;;;2.79;87.46;101603.08;123622;1099;104303;-79
2023/01/01 07:11:53;;;;;;;99.60;59.80;;;;;;;2.81;88.01;101607.63;123765;1098;104222;-79
2023/01/01 07:14:25;;;;;;;98.67;59.30;;;;;;;2.79;87.45;101619.56;123585;1099;104297;-79
2023/01/01 07:16:56;;;;;;;98.93;61.30;;;;;;;2.80;87.95;101620.46;123612;1099;104393;-79
2023/01/01 07:19:27;;;;;;;101.93;61.17;;;;;;;2.85;87.58;101625.27;123923;1099;104354;-79
2023/01/01 07:21:59;;;;;;;103.33;61.33;;;;;;;2.90;87.36;101622.14;123740;1098;104265;-79
2023/01/01 07:24:30;;;;;;;99.93;61.67;;;;;;;2.91;87.42;101619.67;123665;1099;104376;-79
2023/01/01 07:27:01;;;;;;;101.43;61.13;;;;;;;2.93;87.94;101617.21;123458;1099;104347;-78
2023/01/01 07:29:33;;;;;;;99.57;60.77;;;;;;;2.98;86.92;101615.94;123666;1098;104437;-79
2023/01/01 07:32:06;;;;;;;100.20;61.33;;;;;;;3.04;87.86;101611.27;123715;1099;104324;-79
2023/01/01 07:34:37;;;;;;;104.10;60.80;;;;;;;3.08;87.64;101613.31;123718;1099;104220;-78
2023/01/01 07:37:09;;;;;;;100.43;61.10;;;;;;;3.13;87.69;101619.81;123594;1099;104283;-78
2023/01/01 07:39:40;;;;;;;104.13;62.90;;;;;;;3.15;87.71;101620.84;123792;1099;104274;-78
2023/01/01 07:42:11;;;;;;;107.07;63.30;;;;;;;3.19;87.38;101619.39;123692;1099;104271;-79
2023/01/01 07:44:42;;;;;;;103.13;62.93;;;;;;;3.17;87.12;101619.27;123719;1099;104328;-78
2023/01/01 07:47:21;;;;;;;99.57;59.60;;;;;;;3.11;87.44;101628.23;123832;1099;104202;-77
2023/01/01 07:49:53;;;;;;;100.47;61.00;;;;;;;3.07;87.54;101632.27;123695;1099;104181;-78
2023/01/01 07:52:24;;;;;;;100.45;59.20;;;;;;;3.04;87.49;101625.12;123955;1099;104322;-78
2023/01/01 07:54:55;;;;;;;99.93;60.63;;;;;;;3.05;87.59;101638.98;123584;1099;104411;-78
2023/01/01 07:57:26;;;;;;;98.57;58.47;;;;;;;3.05;87.64;101647.70;123764;1099;104373;-78
2023/01/01 07:59:57;;;;;;;96.37;57.67;;;;;;;3.08;87.78;101652.21;123656;1099;104277;-78
2023/01/01 08:02:29;;;;;;;88.20;51.67;;;;;;;3.13;87.84;101653.53;123695;1098;104283;-78
2023/01/01 08:05:01;;;;;;;87.87;53.20;;;;;;;3.13;87.17;101648.34;123713;1099;104367;-78
2023/01/01 08:07:32;;;;;;;88.87;52.97;;;;;;;3.20;87.22;101662.72;123781;1099;104482;-78
2023/01/01 08:10:04;;;;;;;89.93;54.70;;;;;;;3.29;87.32;101663.50;123748;1099;104278;-78
2023/01/01 08:12:36;;;;;;;93.30;56.50;;;;;;;3.36;87.77;101658.02;123871;1099;104271;-79
2023/01/01 08:15:09;;;;;;;91.17;54.17;;;;;;;3.44;88.03;101666.44;123702;1099;104271;-79
2023/01/01 08:17:41;;;;;;;89.72;53.98;;;;;;;3.52;87.41;101662.81;123813;1099;104348;-79
2023/01/01 08:20:12;;;;;;;88.90;54.47;;;;;;;3.66;87.97;101668.21;123833;1099;104348;-78
2023/01/01 08:22:46;;;;;;;88.87;53.97;;;;;;;3.80;88.19;101669.34;123722;1099;104258;-79
2023/01/01 08:25:17;;;;;;;86.83;53.87;;;;;;;3.89;88.30;101664.91;123794;1099;104263;-78
2023/01/01 08:27:49;;;;;;;89.00;55.20;;;;;;;4.02;88.24;101659.00;123824;1099;104172;-78
2023/01/01 08:30:20;;;;;;;87.87;54.90;;;;;;;4.19;88.37;101662.95;123818;1099;104356;-78
2023/01/01 08:32:51;;;;;;;89.05;54.15;;;;;;;4.36;88.20;101662.59;123697;1099;104336;-78
2023/01/01 08:35:23;;;;;;;90.53;53.77;;;;;;;4.52;88.12;101667.34;123751;1099;104338;-78
2023/01/01 08:37:54;;;;;;;90.37;54.17;;;;;;;4.64;88.62;101664.77;123695;1099;104248;-79
2023/01/01 08:40:26;;;;;;;88.20;54.80;;;;;;;4.76;88.33;101652.73;123728;1099;104350;-78
2023/01/01 08:42:57;;;;;;;88.57;54.07;;;;;;;4.89;88.08;101656.27;123800;1099;104358;-79
2023/01/01 08:45:28;;;;;;;87.87;54.57;;;;;;;4.99;88.35;101661.41;123795;1098;104181;-78
2023/01/01 08:47:59;;;;;;;90.87;55.40;;;;;;;5.08;88.16;101653.38;123704;1098;104645;-79
2023/01/01 08:50:31;;;;;;;86.03;53.67;;;;;;;5.17;88.13;101651.48;123766;1099;104255;-79
2023/01/01 08:53:02;;;;;;;87.37;54.20;;;;;;;5.24;88.33;101651.17;123803;1099;104291;-78
2023/01/01 08:55:33;;;;;;;88.00;53.70;;;;;;;5.30;88.26;101651.63;123859;1099;104383;-79
2023/01/01 08:58:08;;;;;;;87.83;53.03;;;;;;;5.37;88.19;101645.18;123807;1099;104296;-79
2023/01/01 09:00:39;;;;;;;89.10;54.47;;;;;;;5.47;87.85;101657.17;123764;1098;104441;-79
2023/01/01 09:03:11;;;;;;;88.20;52.97;;;;;;;5.52;87.98;101654.13;123533;1098;104444;-79
2023/01/01 09:05:44;;;;;;;89.60;52.73;;;;;;;5.60;87.87;101644.29;123734;1099;104255;-79
2023/01/01 09:08:16;;;;;;;87.37;52.73;;;;;;;5.67;88.14;101643.03;123796;1099;104200;-79
2023/01/01 09:10:48;;;;;;;84.17;51.20;;;;;;;5.76;87.94;101642.03;123863;1099;104295;-79
2023/01/01 09:13:22;;;;;;;85.47;50.70;;;;;;;5.87;88.16;101641.89;123758;1099;104462;-80
2023/01/01 09:15:53;;;;;;;83.43;50.90;;;;;;;5.99;88.60;101637.61;123710;1099;104443;-79
2023/01/01 09:18:25;;;;;;;83.87;53.43;;;;;;;6.16;88.58;101635.33;123893;1098;104264;-79
2023/01/01 09:20:56;;;;;;;80.80;50.40;;;;;;;6.31;88.53;101633.81;123837;1098;104286;-79
2023/01/01 09:23:27;;;;;;;83.83;51.37;;;;;;;6.44;88.69;101625.16;123882;1099;104294;-79
2023/01/01 09:26:04;;;;;;;81.93;52.53;;;;;;;6.58;88.90;101620.91;123812;1098;104318;-78
2023/01/01 09:28:35;;;;;;;84.17;52.17;;;;;;;6.71;88.67;101620.94;123889;1099;104274;-80
2023/01/01 09:31:07;;;;;;;86.13;52.33;;;;;;;6.80;88.84;101603.31;123849;1098;104245;-80
2023/01/01 09:33:39;;;;;;;82.67;52.53;;;;;;;6.89;88.60;101605.66;123852;1099;104412;-79
2023/01/01 09:36:27;;;;;;;79.97;50.43;;;;;;;6.95;88.45;101606.08;123927;1099;104351;-78
2023/01/01 09:38:59;;;;;;;87.50;51.50;;;;;;;7.01;88.08;101600.34;123693;1099;107116;-78
2023/01/01 09:41:44;;;;;;;88.10;56.47;;;;;;;7.06;88.28;101603.27;123969;1099;104727;-79
2023/01/01 09:44:29;;;;;;;90.50;57.67;;;;;;;7.13;87.82;101614.23;123942;1099;104223;-78
2023/01/01 09:47:04;;;;;;;91.43;55.67;;;;;;;7.18;87.00;101607.63;123934;1099;104255;-79
2023/01/01 09:49:39;;;;;;;90.40;55.47;;;;;;;7.24;87.63;101611.45;123967;1099;104364;-79
2023/01/01 09:52:14;;;;;;;84.73;53.37;;;;;;;7.32;87.76;101607.63;123942;1099;104290;-78
2023/01/01 09:54:52;;;;;;;83.27;54.27;;;;;;;7.43;87.71;101598.79;123979;1097;104277;-79
2023/01/01 09:57:29;;;;;;;87.47;54.27;;;;;;;7.58;87.93;101598.02;123925;1099;104313;-79
2023/01/01 10:00:01;;;;;;;82.70;51.13;;;;;;;7.71;87.59;101590.15;124091;1099;104638;-79
2023/01/01 10:02:52;;;;;;;79.47;50.47;;;;;;;7.78;87.94;101594.98;123917;1099;104530;-79
2023/01/01 10:05:33;;;;;;;79.97;50.67;;;;;;;7.86;87.57;101591.13;123926;1099;104268;-79
2023/01/01 10:08:10;;;;;;;85.33;52.70;;;;;;;7.98;87.85;101592.72;123959;1099;104216;-79
2023/01/01 10:10:49;;;;;;;84.97;51.97;;;;;;;8.11;87.18;101600.55;123925;1097;104313;-79
2023/01/01 10:13:27;;;;;;;83.50;51.93;;;;;;;8.22;87.33;101585.53;123772;1099;104268;-79
2023/01/01 10:16:01;;;;;;;89.40;57.00;;;;;;;8.35;87.91;101579.34;123982;1099;104394;-79
2023/01/01 10:18:37;;;;;;;92.73;56.43;;;;;;;8.49;87.51;101573.27;123905;1099;104249;-80
2023/01/01 10:21:13;;;;;;;87.63;55.60;;;;;;;8.63;87.46;101559.34;123955;1099;104380;-79
2023/01/01 10:23:48;;;;;;;85.80;55.67;;;;;;;8.82;88.15;101563.07;123975;1099;104283;-79
2023/01/01 10:26:22;;;;;;;81.70;52.07;;;;;;;8.97;88.02;101561.33;124026;1099;104299;-79
2023/01/01 10:28:55;;;;;;;;;;;;;;;9.12;87.27;101558.73;123911;1099;104271;-79
2023/01/01 10:31:33;;;;;;;78.23;48.53;;;;;;;9.24;87.79;101561.17;123897;1099;104409;-79
2023/01/01 10:34:17;;;;;;;78.50;50.70;;;;;;;9.33;87.96;101555.54;124090;1098;104248;-79
2023/01/01 10:36:50;;;;;;;77.37;47.93;;;;;;;9.38;87.65;101554.11;124001;1099;104353;-79
2023/01/01 10:39:24;;;;;;;78.03;47.80;;;;;;;9.43;87.47;101552.64;124047;1099;104223;-79
2023/01/01 10:41:57;;;;;;;77.07;47.77;;;;;;;9.47;87.82;101548.47;123906;1099;104226;-79
2023/01/01 10:44:33;;;;;;;79.12;49.27;;;;;;;9.49;87.23;101542.52;123879;1099;104318;-79
2023/01/01 10:47:23;;;;;;;83.60;51.00;;;;;;;9.51;87.29;101533.02;124114;1099;104281;-79
2023/01/01 10:49:59;;;;;;;77.13;49.20;;;;;;;9.53;87.40;101535.72;123998;1099;104248;-79
2023/01/01 10:52:39;;;;;;;76.87;48.90;;;;;;;9.53;87.37;101527.86;124107;1099;104255;-79
2023/01/01 10:55:24;;;;;;;77.40;47.05;;;;;;;9.52;87.37;101526.05;124055;1098;104367;-79
2023/01/01 10:57:55;;;;;;;72.83;47.10;;;;;;;9.56;86.61;101529.77;123835;1099;104398;-79
2023/01/01 11:00:28;;;;;;;76.20;47.10;;;;;;;9.62;87.29;101524.87;124028;1099;104291;-79
2023/01/01 11:03:19;;;;;;;75.50;47.20;;;;;;;9.69;86.89;101517.44;124061;1099;104276;-80
2023/01/01 11:06:20;;;;;;;76.67;48.10;;;;;;;9.77;87.27;101511.70;123905;1099;104347;-79
2023/01/01 11:08:53;;;;;;;78.10;47.75;;;;;;;9.83;86.24;101507.72;123962;1099;104444;-79
2023/01/01 11:11:29;;;;;;;75.03;46.70;;;;;;;9.89;86.31;101507.13;124003;1099;104342;-80
2023/01/01 11:14:04;;;;;;;72.33;46.67;;;;;;;9.95;86.63;101501.33;123876;1099;104370;-79
2023/01/01 11:16:40;;;;;;;74.23;45.17;;;;;;;10.01;86.78;101505.17;124009;1099;104360;-80
2023/01/01 11:19:21;;;;;;;74.97;45.43;;;;;;;10.07;86.20;101504.61;124024;1099;104176;-80
2023/01/01 11:21:52;;;;;;;73.13;45.90;;;;;;;10.13;86.46;101506.64;123881;1099;104807;-79
2023/01/01 11:24:26;;;;;;;74.57;47.87;;;;;;;10.17;86.27;101504.27;123850;1099;104891;-79
2023/01/01 11:27:22;;;;;;;74.53;46.55;;;;;;;10.20;85.50;101504.42;123987;1099;104353;-79
2023/01/01 11:30:13;;;;;;;74.43;46.83;;;;;;;10.24;85.63;101508.14;123938;1099;104242;-80
2023/01/01 11:32:45;;;;;;;75.20;46.30;;;;;;;10.28;85.64;101507.45;123972;1099;104681;-79